Terminal Aerodrome Forecast
Issued by NWS Charleston, WV

Current Version | Previous Version | Graphics & Text | Print | Product List | Glossary On
Versions: 1 2 3 4 5 6 7 8 9 10 11 12 13 14 15 16 17 18 19 20 21 22 23 24 25
742
FTUS41 KRLX 302101 AAA
TAFPKB
TAF AMD
KPKB 302101Z 3021/3118 13005KT P6SM SKC
     FM310900 00000KT 5SM BR FEW250
     FM311000 00000KT 2SM BR SCT001
     FM311300 00000KT P6SM FEW120=

USA.gov is the U.S. government's official web portal to all federal, state and local government web resources and services.